Time;durP1;ratioP1;P1;durP2;ratioP2;P2;SDS_P1;SDS_P2;PMS_P1;PMS_P2;Temp;Humidity;BMP_temperature;BMP_pressure;BME280_temperature;BME280_humidity;BME280_pressure;Samples;Min_cycle;Max_cycle;Signal;HPM_P1;HPM_P2
2022/12/01 00:01:17;;;;;;;33.15;16.33;;;;;;;6.26;73.69;100629.66;4958948;28;20074;-90
2022/12/01 00:03:44;;;;;;;30.67;15.52;;;;;;;6.27;73.54;100626.06;4971439;28;20117;-90
2022/12/01 00:06:16;;;;;;;32.13;14.88;;;;;;;6.22;72.93;100625.47;4952043;28;20042;-90
2022/12/01 00:10:24;;;;;;;27.65;14.00;;;;;;;6.27;73.28;100629.53;4952702;28;20070;-90
2022/12/01 00:11:32;;;;;;;34.60;15.95;;;;;;;6.28;73.58;100619.84;4932358;28;20457;-90
2022/12/01 00:14:00;;;;;;;30.63;15.13;;;;;;;6.33;73.44;100623.06;4953602;28;20050;-90
2022/12/01 00:16:27;;;;;;;33.88;15.50;;;;;;;6.26;73.33;100627.00;4992689;28;20576;-90
2022/12/01 00:18:54;;;;;;;32.28;14.88;;;;;;;6.28;73.15;100618.06;4952877;28;20039;-90
2022/12/01 00:21:22;;;;;;;34.67;14.27;;;;;;;6.27;72.69;100619.00;4956474;28;20085;-91
2022/12/01 00:23:51;;;;;;;30.92;14.77;;;;;;;6.22;72.16;100625.47;4953882;28;20075;-90
2022/12/01 00:26:19;;;;;;;28.45;15.23;;;;;;;6.20;71.92;100625.56;4969987;28;20133;-91
2022/12/01 00:28:50;;;;;;;32.35;14.98;;;;;;;6.22;71.32;100630.75;4965025;28;20043;-90
2022/12/01 00:31:17;;;;;;;34.58;15.88;;;;;;;6.20;72.41;100628.19;4962627;28;20042;-91
2022/12/01 00:33:44;;;;;;;33.97;15.32;;;;;;;6.20;72.59;100622.91;4977885;28;20461;-90
2022/12/01 00:36:10;;;;;;;27.73;13.90;;;;;;;6.23;72.00;100625.41;4956892;28;20508;-91
2022/12/01 00:38:37;;;;;;;31.95;14.68;;;;;;;6.19;71.53;100623.88;4955000;28;20145;-90
2022/12/01 00:41:04;;;;;;;34.00;15.15;;;;;;;6.23;71.35;100635.94;4959099;28;20600;-90
2022/12/01 00:43:31;;;;;;;33.67;14.80;;;;;;;6.15;70.68;100629.41;4956002;28;20046;-89
2022/12/01 00:45:58;;;;;;;31.00;14.38;;;;;;;6.08;71.32;100639.44;4958065;28;20050;-90
2022/12/01 00:48:26;;;;;;;31.33;14.60;;;;;;;6.15;71.56;100632.88;4955661;28;20050;-91
2022/12/01 00:50:53;;;;;;;30.48;13.57;;;;;;;6.16;71.62;100625.84;4954553;28;20125;-90
2022/12/01 00:53:21;;;;;;;29.17;14.38;;;;;;;6.11;71.53;100626.09;4977273;28;20046;-90
2022/12/01 00:55:48;;;;;;;30.38;14.65;;;;;;;6.09;71.40;100633.25;4953252;28;20038;-90
2022/12/01 00:58:14;;;;;;;30.63;14.40;;;;;;;6.09;71.12;100630.59;4964304;28;20043;-90
2022/12/01 01:00:41;;;;;;;30.70;13.90;;;;;;;5.92;71.50;100634.16;4974697;28;20121;-90
2022/12/01 01:03:09;;;;;;;29.50;13.80;;;;;;;5.97;71.97;100644.47;4954113;28;20142;-90
2022/12/01 01:05:37;;;;;;;29.60;14.20;;;;;;;6.00;72.18;100644.28;4952278;28;20417;-90
2022/12/01 01:08:08;;;;;;;33.97;14.90;;;;;;;6.03;71.59;100645.00;4941527;28;20136;-91
2022/12/01 01:10:43;;;;;;;31.02;15.38;;;;;;;6.02;71.31;100650.34;4946214;28;20442;-90
2022/12/01 01:13:11;;;;;;;33.85;14.98;;;;;;;6.06;71.70;100649.25;4918664;28;20034;-90
2022/12/01 01:15:38;;;;;;;30.00;14.73;;;;;;;6.06;72.21;100638.69;4979546;28;20050;-90
2022/12/01 01:18:05;;;;;;;33.33;15.25;;;;;;;6.06;72.89;100641.34;4956681;28;20449;-90
2022/12/01 01:20:32;;;;;;;31.35;14.73;;;;;;;6.08;72.84;100640.31;4953244;28;20482;-90
2022/12/01 01:22:59;;;;;;;32.05;14.52;;;;;;;6.11;72.58;100652.47;4953394;28;20058;-89
2022/12/01 01:25:25;;;;;;;34.08;14.75;;;;;;;6.09;71.72;100649.91;4968128;28;20054;-91
2022/12/01 01:27:52;;;;;;;30.52;15.25;;;;;;;6.13;71.17;100653.22;4954692;28;20513;-91
2022/12/01 01:30:19;;;;;;;27.65;13.73;;;;;;;6.02;72.13;100648.53;4957160;28;20096;-90
2022/12/01 01:32:46;;;;;;;31.02;14.60;;;;;;;5.98;72.52;100651.44;4956117;28;20046;-89
2022/12/01 01:35:13;;;;;;;31.50;14.10;;;;;;;6.01;72.58;100654.78;4960072;28;20042;-90
2022/12/01 01:37:40;;;;;;;31.90;14.75;;;;;;;6.03;72.19;100654.66;4958391;28;20081;-89
2022/12/01 01:40:07;;;;;;;31.77;14.57;;;;;;;6.06;71.64;100654.50;4968033;28;20049;-89
2022/12/01 01:42:34;;;;;;;32.72;15.27;;;;;;;6.05;71.71;100656.28;4942969;28;20050;-89
2022/12/01 01:45:01;;;;;;;36.35;15.15;;;;;;;6.05;71.54;100664.19;4957526;28;20567;-90
2022/12/01 01:47:35;;;;;;;35.75;15.25;;;;;;;5.91;70.40;100672.00;4934841;28;20046;-89
2022/12/01 01:50:08;;;;;;;33.08;15.27;;;;;;;5.87;70.36;100671.31;4955324;28;20123;-89
2022/12/01 01:52:37;;;;;;;32.25;14.77;;;;;;;5.62;70.84;100684.13;4920605;28;20043;-89
2022/12/01 01:55:04;;;;;;;32.28;14.45;;;;;;;5.70;70.84;100676.69;4955350;28;20394;-89
2022/12/01 01:57:33;;;;;;;33.22;15.82;;;;;;;5.67;71.21;100668.91;4968201;28;20130;-90
2022/12/01 02:00:19;;;;;;;32.72;15.10;;;;;;;5.66;70.86;100668.06;4972994;28;20050;-90
2022/12/01 02:02:47;;;;;;;34.13;15.07;;;;;;;5.71;71.05;100667.81;4931887;28;20043;-90
2022/12/01 02:05:24;;;;;;;36.05;16.88;;;;;;;5.64;71.11;100671.72;4939594;28;20514;-89
2022/12/01 02:07:52;;;;;;;36.50;16.83;;;;;;;5.66;72.02;100665.44;4971233;28;20099;-89
2022/12/01 02:10:23;;;;;;;30.88;15.13;;;;;;;5.59;71.49;100666.69;4964733;28;20486;-90
2022/12/01 02:13:02;;;;;;;30.30;14.65;;;;;;;5.59;71.27;100657.97;4958354;28;20057;-89
2022/12/01 02:15:55;;;;;;;29.65;14.18;;;;;;;5.52;70.76;100656.59;4979400;28;20407;-89
2022/12/01 02:18:58;;;;;;;31.75;14.38;;;;;;;5.56;70.93;100656.34;4959435;28;20089;-89
2022/12/01 02:21:51;;;;;;;34.25;15.50;;;;;;;5.41;70.95;100650.13;4904246;28;20127;-89
2022/12/01 02:24:36;;;;;;;31.35;14.15;;;;;;;5.43;71.23;100650.88;4912249;28;20046;-91
2022/12/01 02:27:07;;;;;;;34.88;14.55;;;;;;;5.33;71.28;100644.41;4942220;28;20057;-89
2022/12/01 02:29:52;;;;;;;26.33;13.23;;;;;;;5.32;70.85;100641.88;4960937;28;20137;-90
2022/12/01 02:32:42;;;;;;;28.95;13.90;;;;;;;5.29;70.66;100635.00;4968608;28;20054;-90
2022/12/01 02:35:48;;;;;;;28.15;12.60;;;;;;;5.32;69.96;100640.09;4949878;28;20050;-90
2022/12/01 02:38:29;;;;;;;29.70;12.73;;;;;;;5.28;70.50;100637.69;4861683;28;20051;-90
2022/12/01 02:41:07;;;;;;;25.90;13.35;;;;;;;5.19;70.13;100632.00;4928820;28;20520;-90
2022/12/01 02:44:15;;;;;;;29.17;13.75;;;;;;;5.14;71.05;100626.13;4923858;28;20042;-90
2022/12/01 02:46:50;;;;;;;28.15;13.23;;;;;;;5.21;70.75;100632.75;4878689;28;20039;-90
2022/12/01 02:49:20;;;;;;;22.85;11.65;;;;;;;5.25;71.03;100627.34;4943743;28;20051;-91
2022/12/01 02:51:47;;;;;;;28.05;11.85;;;;;;;5.21;71.16;100638.00;4929664;28;20101;-90
2022/12/01 02:54:14;;;;;;;23.08;11.48;;;;;;;5.19;70.63;100625.84;4941149;28;20485;-90
2022/12/01 02:56:44;;;;;;;24.95;11.80;;;;;;;5.14;70.80;100626.13;4944823;28;21400;-90
2022/12/01 02:59:12;;;;;;;25.33;11.98;;;;;;;5.12;70.75;100633.25;4974778;28;20057;-90
2022/12/01 03:02:01;;;;;;;24.23;10.70;;;;;;;5.13;70.92;100632.31;4953912;28;20070;-90
2022/12/01 03:04:49;;;;;;;23.60;10.90;;;;;;;5.05;70.67;100641.56;4928120;28;20048;-89
2022/12/01 03:07:42;;;;;;;24.08;11.30;;;;;;;5.08;70.07;100631.69;4935399;28;20050;-91
2022/12/01 03:10:23;;;;;;;23.00;11.00;;;;;;;5.10;69.92;100639.53;4953481;28;20129;-90
2022/12/01 03:13:17;;;;;;;24.60;10.75;;;;;;;5.09;69.56;100624.66;4918443;28;20039;-90
2022/12/01 03:16:05;;;;;;;23.40;10.95;;;;;;;4.99;69.81;100630.41;4954146;28;20379;-89
2022/12/01 03:18:35;;;;;;;23.77;11.30;;;;;;;5.12;70.25;100627.13;4956895;28;20046;-89
2022/12/01 03:21:10;;;;;;;26.38;11.75;;;;;;;5.15;69.71;100627.81;4976847;28;20043;-89
2022/12/01 03:23:45;;;;;;;24.52;11.63;;;;;;;5.05;69.86;100621.34;4952242;28;20051;-88
2022/12/01 03:26:15;;;;;;;21.67;10.88;;;;;;;5.06;70.12;100627.44;4971343;28;20124;-90
2022/12/01 03:29:04;;;;;;;27.65;12.70;;;;;;;5.15;70.25;100624.34;4946733;28;20105;-90
2022/12/01 03:31:39;;;;;;;23.73;11.32;;;;;;;5.09;70.42;100628.16;4931014;28;20049;-90
2022/12/01 03:34:13;;;;;;;25.38;12.52;;;;;;;5.14;70.75;100622.63;4958280;28;20514;-89
2022/12/01 03:36:50;;;;;;;30.48;13.35;;;;;;;5.11;70.41;100615.75;4976507;28;20038;-90
2022/12/01 03:39:22;;;;;;;23.30;11.80;;;;;;;4.99;70.30;100619.88;4916191;28;20057;-90
2022/12/01 03:41:58;;;;;;;23.33;12.32;;;;;;;5.05;70.86;100615.22;4973573;28;20676;-90
2022/12/01 03:44:31;;;;;;;26.25;11.27;;;;;;;5.03;70.54;100617.09;4959213;28;20038;-90
2022/12/01 03:47:03;;;;;;;24.63;11.38;;;;;;;5.04;70.69;100616.16;4971958;28;20046;-90
2022/12/01 03:49:30;;;;;;;25.63;12.27;;;;;;;5.14;70.82;100615.59;4971139;28;20042;-90
2022/12/01 03:52:06;;;;;;;24.35;11.35;;;;;;;5.19;70.88;100610.06;4979690;28;20192;-91
2022/12/01 03:54:53;;;;;;;26.52;13.10;;;;;;;5.05;70.76;100621.34;4912385;28;20413;-90
2022/12/01 03:57:26;;;;;;;24.50;10.70;;;;;;;5.09;70.68;100622.91;4933607;28;20046;-90
2022/12/01 03:59:53;;;;;;;22.67;11.13;;;;;;;5.08;71.11;100623.81;4973770;28;20051;-89
2022/12/01 04:02:20;;;;;;;21.70;10.77;;;;;;;5.16;70.63;100623.41;4940958;28;20453;-90
2022/12/01 04:04:47;;;;;;;28.98;12.85;;;;;;;5.18;70.48;100632.06;4962654;28;20122;-90
2022/12/01 04:07:13;;;;;;;24.65;11.50;;;;;;;5.15;70.88;100627.81;4964001;28;20510;-90
2022/12/01 04:09:40;;;;;;;23.20;11.05;;;;;;;5.23;71.10;100624.78;4957309;28;21166;-90
2022/12/01 04:12:29;;;;;;;21.75;11.07;;;;;;;5.18;70.87;100627.66;4961489;28;20050;-89
2022/12/01 04:14:56;;;;;;;24.77;11.85;;;;;;;5.21;70.63;100627.47;4935297;28;20058;-90
2022/12/01 04:17:24;;;;;;;21.33;10.30;;;;;;;5.21;70.82;100627.47;4986750;28;20174;-90
2022/12/01 04:19:51;;;;;;;20.00;10.80;;;;;;;5.18;71.10;100640.81;4972826;28;20047;-90
2022/12/01 04:22:18;;;;;;;22.60;11.20;;;;;;;5.18;71.11;100634.69;4972119;28;20513;-89
2022/12/01 04:24:44;;;;;;;25.42;11.43;;;;;;;5.16;70.84;100639.19;4957570;28;20042;-90
2022/12/01 04:27:11;;;;;;;27.05;11.98;;;;;;;5.20;70.79;100640.75;4959103;28;20050;-90
2022/12/01 04:29:38;;;;;;;21.17;10.88;;;;;;;5.18;70.93;100635.53;4964225;28;20668;-90
2022/12/01 04:32:05;;;;;;;22.48;10.23;;;;;;;5.11;70.87;100636.78;4970049;28;20046;-90
2022/12/01 04:34:32;;;;;;;22.40;10.23;;;;;;;5.13;70.92;100632.31;4958112;28;20454;-90
2022/12/01 04:36:59;;;;;;;27.00;11.68;;;;;;;5.14;70.44;100628.75;4955303;28;20038;-89
2022/12/01 04:39:26;;;;;;;22.58;10.48;;;;;;;5.03;70.56;100630.25;4953028;28;20042;-89
2022/12/01 04:41:52;;;;;;;25.00;11.10;;;;;;;5.16;70.76;100626.03;4955128;28;20057;-90
2022/12/01 04:44:22;;;;;;;21.55;10.20;;;;;;;5.01;69.59;100638.22;4986111;28;20066;-90
2022/12/01 04:46:52;;;;;;;22.77;10.82;;;;;;;4.98;69.94;100635.75;4963960;28;20062;-90
2022/12/01 04:49:20;;;;;;;21.20;10.05;;;;;;;5.07;70.34;100629.16;4969345;28;20049;-90
2022/12/01 04:51:47;;;;;;;24.10;10.65;;;;;;;5.15;70.74;100629.59;4971799;28;20057;-90
2022/12/01 04:54:14;;;;;;;23.27;10.05;;;;;;;5.10;69.96;100629.00;4952566;28;20042;-90
2022/12/01 04:56:41;;;;;;;25.05;11.50;;;;;;;4.97;70.31;100629.63;4944346;28;20062;-90
2022/12/01 04:59:08;;;;;;;21.10;9.90;;;;;;;5.03;70.36;100635.50;4957003;28;20047;-90
2022/12/01 05:01:35;;;;;;;25.70;11.90;;;;;;;4.94;70.51;100635.06;4959217;28;20141;-90
2022/12/01 05:04:02;;;;;;;25.73;12.10;;;;;;;4.99;70.98;100625.16;4949450;28;20150;-90
2022/12/01 05:06:29;;;;;;;22.33;11.02;;;;;;;4.97;71.61;100629.63;4974163;28;20129;-90
2022/12/01 05:08:58;;;;;;;25.30;12.65;;;;;;;5.02;71.09;100633.81;4960500;28;20046;-89
2022/12/01 05:11:26;;;;;;;23.13;10.80;;;;;;;5.08;71.25;100629.06;4971838;28;20046;-89
2022/12/01 05:13:53;;;;;;;24.33;11.60;;;;;;;5.02;71.63;100633.81;4952936;28;20505;-89
2022/12/01 05:16:22;;;;;;;18.15;9.90;;;;;;;5.03;70.87;100627.63;4969634;28;20752;-89
2022/12/01 05:21:43;;;;;;;27.00;12.67;;;;;;;4.96;71.34;100634.97;4939287;28;20047;-90
2022/12/01 05:24:11;;;;;;;23.88;11.25;;;;;;;5.00;71.06;100634.75;4925596;28;20520;-90
2022/12/01 05:26:38;;;;;;;24.17;11.30;;;;;;;5.06;71.31;100632.72;4963600;28;20050;-89
2022/12/01 05:29:05;;;;;;;27.35;13.43;;;;;;;5.10;71.64;100636.91;4953250;28;20050;-89
2022/12/01 05:31:32;;;;;;;25.17;11.73;;;;;;;5.08;72.15;100623.81;4971689;28;20050;-88
2022/12/01 05:33:59;;;;;;;21.95;11.63;;;;;;;5.13;72.07;100634.94;4945486;28;20042;-89
2022/12/01 05:36:29;;;;;;;24.42;11.98;;;;;;;5.05;71.88;100631.88;4956407;28;20479;-90
2022/12/01 05:38:56;;;;;;;24.92;12.18;;;;;;;5.12;72.02;100629.78;4953045;28;20052;-89
2022/12/01 05:41:23;;;;;;;22.63;10.45;;;;;;;5.16;71.86;100636.56;4944579;28;20046;-90
2022/12/01 05:43:50;;;;;;;24.42;11.60;;;;;;;5.14;71.67;100633.16;4959052;28;20050;-91
2022/12/01 05:46:16;;;;;;;24.05;11.15;;;;;;;5.17;71.44;100630.38;4960870;28;20078;-91
2022/12/01 05:48:43;;;;;;;25.05;11.80;;;;;;;5.03;71.85;100633.72;4974168;28;20050;-90
2022/12/01 05:51:12;;;;;;;24.20;11.38;;;;;;;5.08;71.89;100631.69;4961218;28;20046;-90
2022/12/01 05:53:39;;;;;;;23.20;11.60;;;;;;;5.05;72.03;100629.25;4955462;28;20046;-90
2022/12/01 05:56:06;;;;;;;25.55;10.73;;;;;;;5.15;72.12;100632.25;4971007;28;20053;-89
2022/12/01 05:58:34;;;;;;;21.55;10.98;;;;;;;5.07;72.13;100639.69;4952125;28;20053;-91
2022/12/01 06:01:00;;;;;;;25.25;11.43;;;;;;;5.03;72.16;100638.16;4951864;28;20053;-90
2022/12/01 06:03:27;;;;;;;21.58;11.15;;;;;;;4.97;71.85;100640.16;4949139;28;20053;-90
2022/12/01 06:05:54;;;;;;;25.60;11.80;;;;;;;5.05;71.89;100647.66;4957579;28;20090;-89
2022/12/01 06:08:21;;;;;;;23.63;11.52;;;;;;;5.05;72.05;100633.66;4927115;28;20061;-89
2022/12/01 06:10:48;;;;;;;22.48;10.73;;;;;;;5.03;71.69;100630.25;4950909;28;20050;-90
2022/12/01 06:13:17;;;;;;;24.70;11.63;;;;;;;4.96;71.39;100630.59;5002470;28;20042;-90
2022/12/01 06:15:44;;;;;;;23.42;11.35;;;;;;;4.99;71.72;100635.69;4931268;28;20133;-90
2022/12/01 06:18:10;;;;;;;25.25;11.27;;;;;;;4.96;72.32;100635.84;4967623;28;20045;-88
2022/12/01 06:20:37;;;;;;;25.38;12.07;;;;;;;5.03;71.96;100633.72;4949858;28;20193;-84
2022/12/01 06:23:04;;;;;;;26.02;11.32;;;;;;;4.97;72.26;100634.91;4955926;28;20135;-86
2022/12/01 06:25:31;;;;;;;22.20;10.93;;;;;;;4.88;72.14;100642.44;4965514;28;20490;-87
2022/12/01 06:27:58;;;;;;;25.05;11.52;;;;;;;4.91;72.13;100644.88;4946528;28;20042;-86
2022/12/01 06:30:25;;;;;;;23.42;10.52;;;;;;;4.94;72.41;100642.13;4985589;28;20561;-86
2022/12/01 06:32:52;;;;;;;24.20;11.60;;;;;;;4.97;72.25;100634.91;4955635;28;20049;-86
2022/12/01 06:35:19;;;;;;;24.95;11.65;;;;;;;4.98;72.11;100646.28;4972962;28;20042;-86
2022/12/01 06:37:46;;;;;;;25.50;11.75;;;;;;;5.00;72.57;100647.91;4961272;28;20046;-85
2022/12/01 06:40:12;;;;;;;25.77;12.25;;;;;;;5.00;72.07;100647.91;4968586;28;20062;-84
2022/12/01 06:42:39;;;;;;;23.17;11.10;;;;;;;4.92;72.15;100651.88;4959368;28;20387;-85
2022/12/01 06:45:06;;;;;;;29.98;13.35;;;;;;;4.98;72.07;100646.28;4953059;28;20058;-87
2022/12/01 06:47:33;;;;;;;23.20;11.05;;;;;;;4.95;72.07;100643.81;4953761;28;20113;-86
2022/12/01 06:50:04;;;;;;;23.50;10.80;;;;;;;4.98;72.47;100647.13;4953237;28;20054;-86
2022/12/01 06:52:31;;;;;;;25.27;12.07;;;;;;;4.94;72.65;100650.88;4950712;28;20712;-87
2022/12/01 06:54:59;;;;;;;24.45;11.35;;;;;;;4.99;72.77;100646.22;4961269;28;20058;-86
2022/12/01 06:57:26;;;;;;;25.40;11.23;;;;;;;5.03;72.88;100653.94;4981823;28;20165;-88
2022/12/01 06:59:53;;;;;;;21.35;10.85;;;;;;;5.01;72.78;100656.63;4978346;28;20053;-86
2022/12/01 07:02:20;;;;;;;25.25;11.02;;;;;;;5.01;72.43;100659.28;4985518;28;20491;-85
2022/12/01 07:04:46;;;;;;;24.40;11.50;;;;;;;5.06;72.91;100661.66;4958538;28;20046;-84
2022/12/01 07:07:13;;;;;;;25.30;11.90;;;;;;;5.05;72.38;100655.56;4940909;28;20070;-84
2022/12/01 07:09:40;;;;;;;25.40;11.93;;;;;;;5.04;72.54;100659.13;4957965;28;20050;-85
2022/12/01 07:12:07;;;;;;;25.38;12.02;;;;;;;5.03;72.47;100670.56;4953689;28;20049;-85
2022/12/01 07:14:34;;;;;;;24.88;11.90;;;;;;;5.10;71.98;100671.97;4984965;28;20054;-84
2022/12/01 07:17:01;;;;;;;23.73;12.25;;;;;;;5.05;72.50;100668.72;4970088;28;20038;-85
2022/12/01 07:19:28;;;;;;;25.45;10.85;;;;;;;5.00;72.50;100671.59;4964971;28;20065;-85
2022/12/01 07:21:55;;;;;;;24.75;11.70;;;;;;;5.03;72.76;100672.38;4959570;28;20057;-86
2022/12/01 07:24:21;;;;;;;25.38;11.63;;;;;;;5.02;72.21;100675.94;4968880;28;20481;-85
2022/12/01 07:26:48;;;;;;;26.50;12.15;;;;;;;5.10;72.43;100676.38;4969345;28;20061;-85
2022/12/01 07:29:15;;;;;;;26.33;11.40;;;;;;;4.99;72.33;100676.94;4963551;28;20061;-85
2022/12/01 07:31:42;;;;;;;25.50;11.43;;;;;;;5.05;72.37;100679.25;4959736;28;20046;-86
2022/12/01 07:34:11;;;;;;;24.60;11.63;;;;;;;5.11;72.31;100676.28;4944217;28;20050;-85
2022/12/01 07:36:38;;;;;;;27.98;13.45;;;;;;;5.09;72.29;100686.06;4973101;28;20053;-85
2022/12/01 07:39:08;;;;;;;24.60;11.55;;;;;;;5.06;72.65;100688.00;4959124;28;20149;-85
2022/12/01 07:41:35;;;;;;;27.63;11.77;;;;;;;5.05;72.74;100684.50;4956629;28;20433;-84
2022/12/01 07:44:02;;;;;;;25.23;12.20;;;;;;;5.00;73.21;100686.53;4962730;28;20050;-85
2022/12/01 07:46:29;;;;;;;27.00;12.30;;;;;;;4.96;72.59;100682.34;4956233;28;20068;-85
2022/12/01 07:48:56;;;;;;;29.23;11.90;;;;;;;4.93;72.94;100687.78;4972327;28;20391;-86
2022/12/01 07:51:24;;;;;;;24.25;11.15;;;;;;;4.94;73.02;100692.97;4972097;28;20050;-85
2022/12/01 07:53:54;;;;;;;26.60;12.23;;;;;;;4.92;72.95;100697.47;4969027;28;20050;-85
2022/12/01 07:56:21;;;;;;;29.38;12.23;;;;;;;4.95;72.65;100693.81;4968763;28;20053;-85
2022/12/01 07:58:48;;;;;;;28.13;12.52;;;;;;;4.87;73.40;100698.63;4955126;28;20533;-84
2022/12/01 08:01:18;;;;;;;27.27;11.82;;;;;;;4.91;72.90;100693.13;4960427;28;20541;-84
2022/12/01 08:03:50;;;;;;;25.20;11.35;;;;;;;4.79;72.88;100693.75;4967255;28;20055;-85
2022/12/01 08:06:17;;;;;;;25.85;12.82;;;;;;;4.78;73.16;100694.66;4971753;28;20042;-84
2022/12/01 08:08:45;;;;;;;20.67;10.82;;;;;;;4.73;73.34;100700.19;4992328;28;20038;-85
2022/12/01 08:11:23;;;;;;;21.35;10.80;;;;;;;4.71;73.59;100695.94;4962184;28;20112;-84
2022/12/01 08:13:51;;;;;;;25.63;12.13;;;;;;;4.84;73.14;100697.00;4955691;28;20508;-84
2022/12/01 08:16:19;;;;;;;26.10;11.63;;;;;;;4.85;73.08;100693.44;4992357;28;20042;-85
2022/12/01 08:18:46;;;;;;;30.75;11.82;;;;;;;4.85;73.14;100695.22;4978591;28;20129;-85
2022/12/01 08:21:16;;;;;;;26.05;12.10;;;;;;;4.75;73.43;100693.03;4985718;28;20046;-85
2022/12/01 08:23:43;;;;;;;24.27;11.70;;;;;;;4.79;72.99;100691.97;4969387;28;20459;-87
2022/12/01 08:26:13;;;;;;;25.80;12.63;;;;;;;4.89;73.45;100688.88;4954206;28;20046;-83
2022/12/01 08:28:40;;;;;;;26.35;12.63;;;;;;;4.84;73.31;100694.38;4987215;28;20096;-84
2022/12/01 08:31:18;;;;;;;25.38;12.35;;;;;;;4.87;73.91;100696.00;4989979;28;20038;-84
2022/12/01 08:33:46;;;;;;;22.88;11.88;;;;;;;4.86;73.88;100689.88;4931005;28;20075;-84
2022/12/01 08:36:14;;;;;;;26.25;11.43;;;;;;;4.88;73.50;100692.44;4971691;28;20050;-84
2022/12/01 08:38:44;;;;;;;22.52;10.82;;;;;;;4.90;72.88;100691.41;4953268;28;20043;-85
2022/12/01 08:41:12;;;;;;;24.42;11.55;;;;;;;4.85;73.01;100685.53;4972659;28;20498;-86
2022/12/01 08:43:41;;;;;;;26.35;11.52;;;;;;;4.87;73.25;100685.47;4970223;28;20053;-86
2022/12/01 08:46:25;;;;;;;24.88;11.27;;;;;;;4.92;73.48;100686.94;4952422;28;20046;-86
2022/12/01 08:48:53;;;;;;;23.80;12.07;;;;;;;4.93;73.22;100685.16;4969860;28;20089;-85
2022/12/01 08:51:20;;;;;;;22.65;11.48;;;;;;;4.98;73.53;100691.88;5004263;28;20054;-87
2022/12/01 08:53:48;;;;;;;24.00;11.15;;;;;;;5.07;73.37;100700.25;4963845;28;20077;-85
2022/12/01 08:56:40;;;;;;;24.92;11.10;;;;;;;5.09;73.67;100707.13;4970008;28;20038;-84
2022/12/01 08:59:07;;;;;;;22.33;11.55;;;;;;;5.12;73.41;100709.59;4953929;28;20493;-85
2022/12/01 09:01:34;;;;;;;22.80;11.90;;;;;;;5.16;73.46;100705.00;4971109;28;20398;-84
2022/12/01 09:04:04;;;;;;;24.67;11.23;;;;;;;5.19;73.13;100715.38;4968104;28;20085;-84
2022/12/01 09:06:34;;;;;;;26.92;12.00;;;;;;;5.20;72.95;100706.56;4990779;28;20049;-83
2022/12/01 09:09:01;;;;;;;21.25;11.30;;;;;;;5.22;72.96;100704.72;4959287;28;20051;-84
2022/12/01 09:11:27;;;;;;;26.52;11.40;;;;;;;5.26;73.06;100714.13;4995311;28;20485;-84
2022/12/01 09:13:54;;;;;;;21.60;11.30;;;;;;;5.23;72.74;100704.63;4978135;28;20046;-83
2022/12/01 09:16:21;;;;;;;22.30;11.63;;;;;;;5.26;72.64;100708.03;4955450;28;20108;-82
2022/12/01 09:18:49;;;;;;;23.63;11.73;;;;;;;5.23;72.21;100712.50;4957787;28;20034;-83
2022/12/01 09:21:19;;;;;;;21.85;11.13;;;;;;;5.26;72.63;100710.66;4977039;28;20454;-83
2022/12/01 09:23:46;;;;;;;23.23;10.35;;;;;;;5.28;72.33;100709.66;4973895;28;20039;-84
2022/12/01 09:26:17;;;;;;;24.40;11.13;;;;;;;5.29;72.31;100711.38;4952490;28;20050;-83
2022/12/01 09:28:45;;;;;;;21.65;11.40;;;;;;;5.28;72.36;100711.44;4985284;28;20046;-84
2022/12/01 09:31:13;;;;;;;21.90;10.43;;;;;;;5.31;72.21;100714.75;4976708;28;20063;-86
2022/12/01 09:33:40;;;;;;;23.42;11.13;;;;;;;5.32;72.66;100710.34;4969732;28;20042;-83
2022/12/01 09:36:07;;;;;;;21.75;11.45;;;;;;;5.34;72.61;100705.81;4968583;28;20046;-83
2022/12/01 09:38:35;;;;;;;19.67;11.15;;;;;;;5.38;72.25;100705.59;4986645;28;20053;-84
2022/12/01 09:41:10;;;;;;;23.33;10.93;;;;;;;5.38;72.02;100707.38;4959740;28;20528;-84
2022/12/01 09:43:40;;;;;;;23.77;11.40;;;;;;;5.41;72.13;100692.25;4981499;28;20074;-83
2022/12/01 09:46:13;;;;;;;21.88;10.93;;;;;;;5.46;72.46;100712.25;4961983;28;20047;-83
2022/12/01 09:48:45;;;;;;;19.20;10.00;;;;;;;5.46;72.47;100705.19;4947470;28;20046;-83
2022/12/01 09:51:17;;;;;;;20.70;10.23;;;;;;;5.51;72.21;100697.03;4971342;28;20046;-83
2022/12/01 09:53:43;;;;;;;20.45;10.00;;;;;;;5.55;72.52;100702.06;4970584;28;20053;-83
2022/12/01 09:56:22;;;;;;;25.75;10.73;;;;;;;5.53;71.78;100700.44;4965972;28;20046;-84
2022/12/01 09:58:51;;;;;;;20.77;9.70;;;;;;;5.55;71.83;100693.31;4965511;28;20101;-82
2022/12/01 10:01:29;;;;;;;21.70;10.25;;;;;;;5.60;72.30;100699.19;4969209;28;20034;-84
2022/12/01 10:03:58;;;;;;;21.63;10.80;;;;;;;5.62;71.77;100690.28;4997999;28;20046;-83
2022/12/01 10:06:35;;;;;;;20.45;9.88;;;;;;;5.59;71.69;100695.69;4936574;28;20050;-84
2022/12/01 10:09:14;;;;;;;16.83;8.73;;;;;;;5.60;71.91;100696.56;4960053;28;20046;-84
2022/12/01 10:11:43;;;;;;;21.02;10.90;;;;;;;5.60;72.25;100696.56;4979559;28;20092;-83
2022/12/01 10:14:18;;;;;;;21.25;9.57;;;;;;;5.61;71.66;100688.56;4984893;28;20137;-83
2022/12/01 10:16:49;;;;;;;18.58;9.40;;;;;;;5.61;71.14;100683.28;4972175;28;20491;-83
2022/12/01 10:19:34;;;;;;;19.77;10.23;;;;;;;5.59;71.02;100690.41;4990044;28;20521;-84
2022/12/01 10:22:19;;;;;;;22.60;10.48;;;;;;;5.58;71.70;100680.81;4937994;28;20049;-83
2022/12/01 10:24:56;;;;;;;19.58;9.50;;;;;;;5.52;71.18;100672.38;4986728;28;20057;-83
2022/12/01 10:27:42;;;;;;;22.25;10.80;;;;;;;5.49;71.31;100675.19;4982028;28;20054;-83
2022/12/01 10:30:14;;;;;;;17.23;8.82;;;;;;;5.45;71.33;100669.25;4965501;28;20042;-83
2022/12/01 10:32:53;;;;;;;20.70;9.25;;;;;;;5.49;71.23;100662.03;4984397;28;20137;-84
2022/12/01 10:35:22;;;;;;;17.60;9.52;;;;;;;5.53;71.07;100658.31;4943187;28;20034;-83
2022/12/01 10:37:54;;;;;;;20.13;8.80;;;;;;;5.49;71.63;100656.75;4982015;28;20042;-83
2022/12/01 10:40:21;;;;;;;20.92;9.45;;;;;;;5.42;72.02;100657.09;4984326;28;20122;-83
2022/12/01 10:42:49;;;;;;;19.60;9.98;;;;;;;5.40;71.69;100655.47;4969338;28;20042;-84
2022/12/01 10:45:28;;;;;;;16.77;8.93;;;;;;;5.36;72.37;100657.41;4955036;28;20129;-84
2022/12/01 10:48:10;;;;;;;24.90;10.13;;;;;;;5.36;71.10;100646.88;4975407;28;20047;-83
2022/12/01 10:50:37;;;;;;;17.52;8.98;;;;;;;5.31;71.65;100648.06;4953944;28;20054;-83
2022/12/01 10:53:04;;;;;;;19.90;9.63;;;;;;;5.37;71.74;100643.31;4966305;28;20039;-85
2022/12/01 10:55:38;;;;;;;18.65;8.95;;;;;;;5.39;72.37;100644.09;4950152;28;20049;-85
2022/12/01 10:58:14;;;;;;;21.83;9.33;;;;;;;5.46;73.13;100641.97;4964137;28;20437;-84
2022/12/01 11:00:43;;;;;;;23.10;9.43;;;;;;;5.50;72.40;100640.03;4956039;28;20523;-85
2022/12/01 11:03:32;;;;;;;19.90;9.63;;;;;;;5.48;72.21;100631.34;4978896;28;20045;-89
2022/12/01 11:06:04;;;;;;;20.05;10.30;;;;;;;5.53;72.44;100626.69;4934103;28;20534;-87
2022/12/01 11:09:53;;;;;;;22.73;10.52;;;;;;;5.42;72.03;100617.59;4889039;28;20089;-90
2022/12/01 11:12:28;;;;;;;18.20;9.02;;;;;;;5.44;72.46;100622.75;4782290;29;20422;-85
2022/12/01 11:14:54;;;;;;;21.77;9.65;;;;;;;5.44;72.63;100613.09;4791045;29;20049;-84
2022/12/01 11:17:29;;;;;;;19.60;9.18;;;;;;;5.38;72.69;100610.78;4842194;29;20120;-85
2022/12/01 11:19:54;;;;;;;21.02;9.48;;;;;;;5.52;72.95;100610.03;4816830;29;20071;-85
2022/12/01 11:22:29;;;;;;;22.65;9.43;;;;;;;5.60;73.09;100605.19;4829681;29;20041;-84
2022/12/01 11:24:56;;;;;;;21.42;10.20;;;;;;;5.55;72.80;100609.03;4842765;29;20416;-84
2022/12/01 11:27:25;;;;;;;21.23;9.55;;;;;;;5.60;72.61;100612.25;4838130;29;20415;-86
2022/12/01 11:29:54;;;;;;;21.92;9.40;;;;;;;5.62;72.57;100605.97;4825458;29;20188;-85
2022/12/01 11:32:23;;;;;;;20.17;10.13;;;;;;;5.67;72.84;100603.03;4825090;29;20090;-84
2022/12/01 11:35:16;;;;;;;19.58;9.57;;;;;;;5.62;73.44;100602.44;4809980;29;20055;-83
2022/12/01 11:37:47;;;;;;;18.25;9.05;;;;;;;5.58;72.50;100599.16;4811843;29;20041;-84